sensor_id;sensor_type;location;lat;lon;timestamp;temperature;humidity
83500;DHT22;73433;50.908;13.746;2024-02-26T00:01:06;0.10;91.80
83500;DHT22;73433;50.908;13.746;2024-02-26T00:03:33;0.10;91.70
83500;DHT22;73433;50.908;13.746;2024-02-26T00:06:02;0.10;91.50
83500;DHT22;73433;50.908;13.746;2024-02-26T00:08:30;0.00;91.20
83500;DHT22;73433;50.908;13.746;2024-02-26T00:10:57;0.00;91.00
83500;DHT22;73433;50.908;13.746;2024-02-26T00:13:24;-0.10;91.10
83500;DHT22;73433;50.908;13.746;2024-02-26T00:15:51;-0.10;91.30
83500;DHT22;73433;50.908;13.746;2024-02-26T00:18:18;-0.10;91.40
83500;DHT22;73433;50.908;13.746;2024-02-26T00:20:46;-0.20;91.50
83500;DHT22;73433;50.908;13.746;2024-02-26T00:23:15;-0.20;91.50
83500;DHT22;73433;50.908;13.746;2024-02-26T00:25:42;-0.20;91.80
83500;DHT22;73433;50.908;13.746;2024-02-26T00:28:10;-0.20;91.90
83500;DHT22;73433;50.908;13.746;2024-02-26T00:30:37;-0.20;92.30
83500;DHT22;73433;50.908;13.746;2024-02-26T00:33:04;-0.20;91.80
83500;DHT22;73433;50.908;13.746;2024-02-26T00:35:32;-0.20;91.90
83500;DHT22;73433;50.908;13.746;2024-02-26T00:37:59;-0.30;92.00
83500;DHT22;73433;50.908;13.746;2024-02-26T00:40:27;-0.30;92.00
83500;DHT22;73433;50.908;13.746;2024-02-26T00:42:54;-0.30;92.80
83500;DHT22;73433;50.908;13.746;2024-02-26T00:45:22;-0.30;92.00
83500;DHT22;73433;50.908;13.746;2024-02-26T00:47:49;-0.30;92.00
83500;DHT22;73433;50.908;13.746;2024-02-26T00:50:16;-0.40;91.90
83500;DHT22;73433;50.908;13.746;2024-02-26T00:52:44;-0.40;92.00
83500;DHT22;73433;50.908;13.746;2024-02-26T00:55:11;-0.40;92.10
83500;DHT22;73433;50.908;13.746;2024-02-26T00:57:38;-0.40;92.10
83500;DHT22;73433;50.908;13.746;2024-02-26T01:00:08;-0.40;92.30
83500;DHT22;73433;50.908;13.746;2024-02-26T01:02:37;-0.40;92.50
83500;DHT22;73433;50.908;13.746;2024-02-26T01:05:06;-0.40;92.60
83500;DHT22;73433;50.908;13.746;2024-02-26T01:07:33;-0.50;92.80
83500;DHT22;73433;50.908;13.746;2024-02-26T01:10:03;-0.40;92.90
83500;DHT22;73433;50.908;13.746;2024-02-26T01:12:33;-0.40;92.80
83500;DHT22;73433;50.908;13.746;2024-02-26T01:15:02;-0.50;92.80
83500;DHT22;73433;50.908;13.746;2024-02-26T01:17:33;-0.50;92.60
83500;DHT22;73433;50.908;13.746;2024-02-26T01:20:00;-0.50;92.80
83500;DHT22;73433;50.908;13.746;2024-02-26T01:22:27;-0.50;93.20
83500;DHT22;73433;50.908;13.746;2024-02-26T01:24:54;-0.50;93.30
83500;DHT22;73433;50.908;13.746;2024-02-26T01:27:22;-0.50;93.60
83500;DHT22;73433;50.908;13.746;2024-02-26T01:29:53;-0.50;93.60
83500;DHT22;73433;50.908;13.746;2024-02-26T01:32:20;-0.50;93.70
83500;DHT22;73433;50.908;13.746;2024-02-26T01:34:48;-0.50;93.70
83500;DHT22;73433;50.908;13.746;2024-02-26T01:37:15;-0.50;93.40
83500;DHT22;73433;50.908;13.746;2024-02-26T01:39:42;-0.50;93.50
83500;DHT22;73433;50.908;13.746;2024-02-26T01:42:09;-0.50;93.50
83500;DHT22;73433;50.908;13.746;2024-02-26T01:44:36;-0.60;93.40
83500;DHT22;73433;50.908;13.746;2024-02-26T01:47:07;-0.60;93.40
83500;DHT22;73433;50.908;13.746;2024-02-26T01:49:35;-0.50;93.60
83500;DHT22;73433;50.908;13.746;2024-02-26T01:52:04;-0.60;93.40
83500;DHT22;73433;50.908;13.746;2024-02-26T01:54:35;-0.60;93.50
83500;DHT22;73433;50.908;13.746;2024-02-26T01:57:05;-0.60;93.60
83500;DHT22;73433;50.908;13.746;2024-02-26T01:59:34;-0.60;93.60
83500;DHT22;73433;50.908;13.746;2024-02-26T02:02:04;-0.60;93.60
83500;DHT22;73433;50.908;13.746;2024-02-26T02:04:32;-0.60;93.50
83500;DHT22;73433;50.908;13.746;2024-02-26T02:07:00;-0.60;93.40
83500;DHT22;73433;50.908;13.746;2024-02-26T02:09:28;-0.60;93.40
83500;DHT22;73433;50.908;13.746;2024-02-26T02:11:55;-0.70;93.40
83500;DHT22;73433;50.908;13.746;2024-02-26T02:14:23;-0.70;93.50
83500;DHT22;73433;50.908;13.746;2024-02-26T02:16:51;-0.70;93.80
83500;DHT22;73433;50.908;13.746;2024-02-26T02:19:18;-0.70;94.00
83500;DHT22;73433;50.908;13.746;2024-02-26T02:21:45;-0.70;93.90
83500;DHT22;73433;50.908;13.746;2024-02-26T02:24:12;-0.70;93.90
83500;DHT22;73433;50.908;13.746;2024-02-26T02:26:39;-0.70;93.90
83500;DHT22;73433;50.908;13.746;2024-02-26T02:29:07;-0.70;93.90
83500;DHT22;73433;50.908;13.746;2024-02-26T02:31:36;-0.70;93.80
83500;DHT22;73433;50.908;13.746;2024-02-26T02:34:04;-0.70;93.80
83500;DHT22;73433;50.908;13.746;2024-02-26T02:36:31;-0.80;93.60
83500;DHT22;73433;50.908;13.746;2024-02-26T02:38:58;-0.80;93.50
83500;DHT22;73433;50.908;13.746;2024-02-26T02:41:26;-0.80;93.50
83500;DHT22;73433;50.908;13.746;2024-02-26T02:43:54;-0.80;93.50
83500;DHT22;73433;50.908;13.746;2024-02-26T02:46:21;-0.80;93.60
83500;DHT22;73433;50.908;13.746;2024-02-26T02:48:48;-0.80;93.70
83500;DHT22;73433;50.908;13.746;2024-02-26T02:51:15;-0.80;93.50
83500;DHT22;73433;50.908;13.746;2024-02-26T02:53:43;-0.80;93.50
83500;DHT22;73433;50.908;13.746;2024-02-26T02:56:10;-0.80;93.50
83500;DHT22;73433;50.908;13.746;2024-02-26T02:58:37;-0.80;93.60
83500;DHT22;73433;50.908;13.746;2024-02-26T03:01:04;-0.90;93.60
83500;DHT22;73433;50.908;13.746;2024-02-26T03:03:31;-0.90;93.60
83500;DHT22;73433;50.908;13.746;2024-02-26T03:05:59;-0.90;93.60
83500;DHT22;73433;50.908;13.746;2024-02-26T03:08:26;-0.90;93.70
83500;DHT22;73433;50.908;13.746;2024-02-26T03:10:53;-0.90;93.90
83500;DHT22;73433;50.908;13.746;2024-02-26T03:13:21;-0.90;94.00
83500;DHT22;73433;50.908;13.746;2024-02-26T03:15:48;-0.90;94.00
83500;DHT22;73433;50.908;13.746;2024-02-26T03:18:15;-1.00;93.90
83500;DHT22;73433;50.908;13.746;2024-02-26T03:20:43;-1.00;93.80
83500;DHT22;73433;50.908;13.746;2024-02-26T03:23:11;-1.00;93.90
83500;DHT22;73433;50.908;13.746;2024-02-26T03:25:41;-1.00;94.00
83500;DHT22;73433;50.908;13.746;2024-02-26T03:28:08;-1.00;94.00
83500;DHT22;73433;50.908;13.746;2024-02-26T03:30:35;-1.00;94.00
83500;DHT22;73433;50.908;13.746;2024-02-26T03:33:02;-1.00;93.90
83500;DHT22;73433;50.908;13.746;2024-02-26T03:35:30;-1.00;93.90
83500;DHT22;73433;50.908;13.746;2024-02-26T03:37:57;-1.00;93.80
83500;DHT22;73433;50.908;13.746;2024-02-26T03:40:24;-1.00;93.80
83500;DHT22;73433;50.908;13.746;2024-02-26T03:42:51;-1.00;93.80
83500;DHT22;73433;50.908;13.746;2024-02-26T03:45:20;-1.00;93.70
83500;DHT22;73433;50.908;13.746;2024-02-26T03:47:48;-1.00;93.60
83500;DHT22;73433;50.908;13.746;2024-02-26T03:50:15;-1.10;93.50
83500;DHT22;73433;50.908;13.746;2024-02-26T03:52:43;-1.10;93.40
83500;DHT22;73433;50.908;13.746;2024-02-26T03:55:10;-1.10;93.50
83500;DHT22;73433;50.908;13.746;2024-02-26T03:57:37;-1.10;94.30
83500;DHT22;73433;50.908;13.746;2024-02-26T04:00:05;-1.10;93.50
83500;DHT22;73433;50.908;13.746;2024-02-26T04:02:33;-1.20;93.50
83500;DHT22;73433;50.908;13.746;2024-02-26T04:05:00;-1.20;93.70
83500;DHT22;73433;50.908;13.746;2024-02-26T04:07:28;-1.20;93.80
83500;DHT22;73433;50.908;13.746;2024-02-26T04:09:55;-1.20;93.90
83500;DHT22;73433;50.908;13.746;2024-02-26T04:12:22;-1.20;93.90
83500;DHT22;73433;50.908;13.746;2024-02-26T04:14:49;-1.20;94.00
83500;DHT22;73433;50.908;13.746;2024-02-26T04:17:16;-1.20;93.90
83500;DHT22;73433;50.908;13.746;2024-02-26T04:19:43;-1.20;93.90
83500;DHT22;73433;50.908;13.746;2024-02-26T04:22:11;-1.20;93.80
83500;DHT22;73433;50.908;13.746;2024-02-26T04:24:38;-1.20;93.90
83500;DHT22;73433;50.908;13.746;2024-02-26T04:27:05;-1.20;94.00
83500;DHT22;73433;50.908;13.746;2024-02-26T04:29:32;-1.20;94.10
83500;DHT22;73433;50.908;13.746;2024-02-26T04:31:59;-1.20;94.30
83500;DHT22;73433;50.908;13.746;2024-02-26T04:34:26;-1.20;94.10
83500;DHT22;73433;50.908;13.746;2024-02-26T04:36:54;-1.20;94.20
83500;DHT22;73433;50.908;13.746;2024-02-26T04:39:21;-1.20;94.00
83500;DHT22;73433;50.908;13.746;2024-02-26T04:41:48;-1.20;94.20
83500;DHT22;73433;50.908;13.746;2024-02-26T04:44:15;-1.20;94.30
83500;DHT22;73433;50.908;13.746;2024-02-26T04:46:42;-1.20;94.70
83500;DHT22;73433;50.908;13.746;2024-02-26T04:49:10;-1.20;95.10
83500;DHT22;73433;50.908;13.746;2024-02-26T04:51:37;-1.10;95.40
83500;DHT22;73433;50.908;13.746;2024-02-26T04:54:04;-1.10;95.70
83500;DHT22;73433;50.908;13.746;2024-02-26T04:56:32;-1.10;95.90
83500;DHT22;73433;50.908;13.746;2024-02-26T04:58:59;-1.10;95.80
83500;DHT22;73433;50.908;13.746;2024-02-26T05:01:26;-1.00;95.90
83500;DHT22;73433;50.908;13.746;2024-02-26T05:03:53;-1.00;96.00
83500;DHT22;73433;50.908;13.746;2024-02-26T05:06:20;-1.00;96.20
83500;DHT22;73433;50.908;13.746;2024-02-26T05:08:48;-0.90;96.20
83500;DHT22;73433;50.908;13.746;2024-02-26T05:11:15;-0.90;96.40
83500;DHT22;73433;50.908;13.746;2024-02-26T05:13:43;-0.90;96.50
83500;DHT22;73433;50.908;13.746;2024-02-26T05:16:12;-0.90;96.40
83500;DHT22;73433;50.908;13.746;2024-02-26T05:18:39;-0.80;96.50
83500;DHT22;73433;50.908;13.746;2024-02-26T05:21:06;-0.80;96.80
83500;DHT22;73433;50.908;13.746;2024-02-26T05:23:34;-0.70;97.10
83500;DHT22;73433;50.908;13.746;2024-02-26T05:26:01;-0.70;97.40
83500;DHT22;73433;50.908;13.746;2024-02-26T05:28:28;-0.60;97.40
83500;DHT22;73433;50.908;13.746;2024-02-26T05:30:55;-0.60;97.70
83500;DHT22;73433;50.908;13.746;2024-02-26T05:33:23;-0.50;97.80
83500;DHT22;73433;50.908;13.746;2024-02-26T05:35:50;-0.50;98.10
83500;DHT22;73433;50.908;13.746;2024-02-26T05:38:17;-0.30;99.20
83500;DHT22;73433;50.908;13.746;2024-02-26T05:40:44;-0.20;98.50
83500;DHT22;73433;50.908;13.746;2024-02-26T05:43:12;-0.20;98.50
83500;DHT22;73433;50.908;13.746;2024-02-26T05:45:42;-0.20;98.50
83500;DHT22;73433;50.908;13.746;2024-02-26T05:48:10;-0.10;98.50
83500;DHT22;73433;50.908;13.746;2024-02-26T05:50:38;-0.10;98.40
83500;DHT22;73433;50.908;13.746;2024-02-26T05:53:05;-0.10;97.90
83500;DHT22;73433;50.908;13.746;2024-02-26T05:55:32;-0.20;97.30
83500;DHT22;73433;50.908;13.746;2024-02-26T05:57:59;-0.30;96.90
83500;DHT22;73433;50.908;13.746;2024-02-26T06:00:27;-0.30;96.80
83500;DHT22;73433;50.908;13.746;2024-02-26T06:02:54;-0.30;96.70
83500;DHT22;73433;50.908;13.746;2024-02-26T06:05:21;-0.30;96.90
83500;DHT22;73433;50.908;13.746;2024-02-26T06:07:49;-0.30;96.90
83500;DHT22;73433;50.908;13.746;2024-02-26T06:10:16;-0.30;97.00
83500;DHT22;73433;50.908;13.746;2024-02-26T06:12:43;-0.30;97.00
83500;DHT22;73433;50.908;13.746;2024-02-26T06:15:10;-0.20;97.10
83500;DHT22;73433;50.908;13.746;2024-02-26T06:17:37;-0.20;97.30
83500;DHT22;73433;50.908;13.746;2024-02-26T06:20:05;-0.10;97.60
83500;DHT22;73433;50.908;13.746;2024-02-26T06:22:33;-0.10;97.90
83500;DHT22;73433;50.908;13.746;2024-02-26T06:25:00;0.00;98.10
83500;DHT22;73433;50.908;13.746;2024-02-26T06:27:28;0.10;98.20
83500;DHT22;73433;50.908;13.746;2024-02-26T06:29:55;0.20;98.30
83500;DHT22;73433;50.908;13.746;2024-02-26T06:32:23;0.20;98.10
83500;DHT22;73433;50.908;13.746;2024-02-26T06:34:51;0.30;97.90
83500;DHT22;73433;50.908;13.746;2024-02-26T06:37:18;0.30;97.70
83500;DHT22;73433;50.908;13.746;2024-02-26T06:39:45;0.40;97.70
83500;DHT22;73433;50.908;13.746;2024-02-26T06:42:12;0.50;98.10
83500;DHT22;73433;50.908;13.746;2024-02-26T06:44:40;0.60;98.40
83500;DHT22;73433;50.908;13.746;2024-02-26T06:47:07;0.70;98.50
83500;DHT22;73433;50.908;13.746;2024-02-26T06:49:34;0.80;98.40
83500;DHT22;73433;50.908;13.746;2024-02-26T06:52:01;1.00;98.60
83500;DHT22;73433;50.908;13.746;2024-02-26T06:54:29;1.10;98.70
83500;DHT22;73433;50.908;13.746;2024-02-26T06:56:56;1.20;98.70
83500;DHT22;73433;50.908;13.746;2024-02-26T06:59:24;1.40;98.90
83500;DHT22;73433;50.908;13.746;2024-02-26T07:01:51;1.60;99.10
83500;DHT22;73433;50.908;13.746;2024-02-26T07:04:18;1.90;99.30
83500;DHT22;73433;50.908;13.746;2024-02-26T07:06:45;2.10;99.50
83500;DHT22;73433;50.908;13.746;2024-02-26T07:09:14;2.40;99.60
83500;DHT22;73433;50.908;13.746;2024-02-26T07:11:41;2.80;99.80
83500;DHT22;73433;50.908;13.746;2024-02-26T07:14:12;3.40;99.90
83500;DHT22;73433;50.908;13.746;2024-02-26T07:16:39;3.80;99.30
83500;DHT22;73433;50.908;13.746;2024-02-26T07:19:06;4.30;98.10
83500;DHT22;73433;50.908;13.746;2024-02-26T07:21:34;4.50;95.90
83500;DHT22;73433;50.908;13.746;2024-02-26T07:24:01;4.70;94.70
83500;DHT22;73433;50.908;13.746;2024-02-26T07:26:28;4.80;93.70
83500;DHT22;73433;50.908;13.746;2024-02-26T07:28:57;5.00;92.90
83500;DHT22;73433;50.908;13.746;2024-02-26T07:31:25;5.10;92.10
83500;DHT22;73433;50.908;13.746;2024-02-26T07:33:52;5.20;91.00
83500;DHT22;73433;50.908;13.746;2024-02-26T07:36:19;5.30;90.50
83500;DHT22;73433;50.908;13.746;2024-02-26T07:38:46;5.40;91.10
83500;DHT22;73433;50.908;13.746;2024-02-26T07:41:16;5.80;92.60
83500;DHT22;73433;50.908;13.746;2024-02-26T07:43:43;6.70;93.00
83500;DHT22;73433;50.908;13.746;2024-02-26T07:46:12;7.50;91.10
83500;DHT22;73433;50.908;13.746;2024-02-26T07:48:39;8.40;87.70
83500;DHT22;73433;50.908;13.746;2024-02-26T07:51:08;9.20;84.30
83500;DHT22;73433;50.908;13.746;2024-02-26T07:53:35;9.80;80.70
83500;DHT22;73433;50.908;13.746;2024-02-26T07:56:02;10.30;78.10
83500;DHT22;73433;50.908;13.746;2024-02-26T07:58:31;10.70;75.50
83500;DHT22;73433;50.908;13.746;2024-02-26T08:00:59;11.00;73.60
83500;DHT22;73433;50.908;13.746;2024-02-26T08:03:26;11.30;71.70
83500;DHT22;73433;50.908;13.746;2024-02-26T08:05:54;11.60;70.80
83500;DHT22;73433;50.908;13.746;2024-02-26T08:08:22;11.70;68.80
83500;DHT22;73433;50.908;13.746;2024-02-26T08:10:49;11.80;68.10
83500;DHT22;73433;50.908;13.746;2024-02-26T08:13:16;11.90;67.80
83500;DHT22;73433;50.908;13.746;2024-02-26T08:15:43;12.00;66.80
83500;DHT22;73433;50.908;13.746;2024-02-26T08:18:10;12.10;66.10
83500;DHT22;73433;50.908;13.746;2024-02-26T08:20:38;12.20;65.90
83500;DHT22;73433;50.908;13.746;2024-02-26T08:23:06;12.40;65.50
83500;DHT22;73433;50.908;13.746;2024-02-26T08:25:33;12.60;63.70
83500;DHT22;73433;50.908;13.746;2024-02-26T08:28:00;12.60;63.20
83500;DHT22;73433;50.908;13.746;2024-02-26T08:30:27;12.60;62.60
83500;DHT22;73433;50.908;13.746;2024-02-26T08:32:55;12.60;62.50
83500;DHT22;73433;50.908;13.746;2024-02-26T08:35:22;12.60;62.30
83500;DHT22;73433;50.908;13.746;2024-02-26T08:37:49;12.70;62.70
83500;DHT22;73433;50.908;13.746;2024-02-26T08:40:17;12.90;62.20
83500;DHT22;73433;50.908;13.746;2024-02-26T08:42:44;13.10;61.50
83500;DHT22;73433;50.908;13.746;2024-02-26T08:45:11;13.30;61.10
83500;DHT22;73433;50.908;13.746;2024-02-26T08:47:39;13.50;60.50
83500;DHT22;73433;50.908;13.746;2024-02-26T08:50:06;13.60;59.50
83500;DHT22;73433;50.908;13.746;2024-02-26T08:52:35;13.70;58.70
83500;DHT22;73433;50.908;13.746;2024-02-26T08:55:03;13.50;57.60
83500;DHT22;73433;50.908;13.746;2024-02-26T08:57:31;13.20;57.40
83500;DHT22;73433;50.908;13.746;2024-02-26T09:00:03;12.80;57.20
83500;DHT22;73433;50.908;13.746;2024-02-26T09:02:31;12.50;58.60
83500;DHT22;73433;50.908;13.746;2024-02-26T09:04:58;12.30;59.40
83500;DHT22;73433;50.908;13.746;2024-02-26T09:07:25;12.30;60.50
83500;DHT22;73433;50.908;13.746;2024-02-26T09:09:52;12.50;61.00
83500;DHT22;73433;50.908;13.746;2024-02-26T09:12:19;12.70;60.30
83500;DHT22;73433;50.908;13.746;2024-02-26T09:14:47;12.80;59.50
83500;DHT22;73433;50.908;13.746;2024-02-26T09:17:14;12.80;59.40
83500;DHT22;73433;50.908;13.746;2024-02-26T09:19:41;12.80;59.00
83500;DHT22;73433;50.908;13.746;2024-02-26T09:22:09;12.60;58.90
83500;DHT22;73433;50.908;13.746;2024-02-26T09:24:36;12.50;59.10
83500;DHT22;73433;50.908;13.746;2024-02-26T09:27:03;12.50;59.60
83500;DHT22;73433;50.908;13.746;2024-02-26T09:29:31;12.50;59.60
83500;DHT22;73433;50.908;13.746;2024-02-26T09:31:58;12.60;59.80
83500;DHT22;73433;50.908;13.746;2024-02-26T09:34:25;12.90;60.00
83500;DHT22;73433;50.908;13.746;2024-02-26T09:36:52;13.10;58.80
83500;DHT22;73433;50.908;13.746;2024-02-26T09:39:28;13.10;59.10
83500;DHT22;73433;50.908;13.746;2024-02-26T09:41:56;13.30;58.50
83500;DHT22;73433;50.908;13.746;2024-02-26T09:44:24;13.50;58.40
83500;DHT22;73433;50.908;13.746;2024-02-26T09:46:52;13.80;58.10
83500;DHT22;73433;50.908;13.746;2024-02-26T09:49:20;13.90;57.30
83500;DHT22;73433;50.908;13.746;2024-02-26T09:51:49;13.90;56.80
83500;DHT22;73433;50.908;13.746;2024-02-26T09:54:17;13.90;56.20
83500;DHT22;73433;50.908;13.746;2024-02-26T09:56:45;13.90;56.80
83500;DHT22;73433;50.908;13.746;2024-02-26T09:59:29;14.00;56.90
83500;DHT22;73433;50.908;13.746;2024-02-26T10:02:10;13.90;56.00
83500;DHT22;73433;50.908;13.746;2024-02-26T10:04:39;13.90;56.10
83500;DHT22;73433;50.908;13.746;2024-02-26T10:07:12;14.00;56.40
83500;DHT22;73433;50.908;13.746;2024-02-26T10:09:40;14.10;55.80
83500;DHT22;73433;50.908;13.746;2024-02-26T10:12:10;14.10;55.30
83500;DHT22;73433;50.908;13.746;2024-02-26T10:14:37;14.10;55.10
83500;DHT22;73433;50.908;13.746;2024-02-26T10:17:07;14.10;55.20
83500;DHT22;73433;50.908;13.746;2024-02-26T10:19:35;14.20;55.30
83500;DHT22;73433;50.908;13.746;2024-02-26T10:22:05;14.20;54.60
83500;DHT22;73433;50.908;13.746;2024-02-26T10:24:32;14.10;54.80
83500;DHT22;73433;50.908;13.746;2024-02-26T10:27:02;14.10;55.10
83500;DHT22;73433;50.908;13.746;2024-02-26T10:29:29;14.10;54.50
83500;DHT22;73433;50.908;13.746;2024-02-26T10:31:56;14.00;54.20
83500;DHT22;73433;50.908;13.746;2024-02-26T10:34:24;13.90;55.70
83500;DHT22;73433;50.908;13.746;2024-02-26T10:36:51;14.10;55.60
83500;DHT22;73433;50.908;13.746;2024-02-26T10:39:21;14.30;54.90
83500;DHT22;73433;50.908;13.746;2024-02-26T10:41:49;14.40;54.50
83500;DHT22;73433;50.908;13.746;2024-02-26T10:44:17;14.50;54.10
83500;DHT22;73433;50.908;13.746;2024-02-26T10:46:48;14.60;53.50
83500;DHT22;73433;50.908;13.746;2024-02-26T10:49:19;14.50;53.10
83500;DHT22;73433;50.908;13.746;2024-02-26T10:51:54;14.40;53.10
83500;DHT22;73433;50.908;13.746;2024-02-26T10:54:25;14.40;53.30
83500;DHT22;73433;50.908;13.746;2024-02-26T10:56:53;14.30;53.60
83500;DHT22;73433;50.908;13.746;2024-02-26T10:59:23;14.40;54.10
83500;DHT22;73433;50.908;13.746;2024-02-26T11:01:50;14.60;54.20
83500;DHT22;73433;50.908;13.746;2024-02-26T11:04:18;14.70;53.10
83500;DHT22;73433;50.908;13.746;2024-02-26T11:06:46;14.70;52.80
83500;DHT22;73433;50.908;13.746;2024-02-26T11:09:16;14.50;52.40
83500;DHT22;73433;50.908;13.746;2024-02-26T11:11:44;14.40;53.10
83500;DHT22;73433;50.908;13.746;2024-02-26T11:14:12;14.40;53.30
83500;DHT22;73433;50.908;13.746;2024-02-26T11:16:41;14.20;53.00
83500;DHT22;73433;50.908;13.746;2024-02-26T11:19:10;14.00;53.30
83500;DHT22;73433;50.908;13.746;2024-02-26T11:21:40;13.70;54.30
83500;DHT22;73433;50.908;13.746;2024-02-26T11:24:12;13.40;54.40
83500;DHT22;73433;50.908;13.746;2024-02-26T11:26:49;13.40;55.90
83500;DHT22;73433;50.908;13.746;2024-02-26T11:29:21;13.50;55.80
83500;DHT22;73433;50.908;13.746;2024-02-26T11:31:50;13.50;55.80
83500;DHT22;73433;50.908;13.746;2024-02-26T11:34:18;13.60;55.60
83500;DHT22;73433;50.908;13.746;2024-02-26T11:36:46;13.50;55.30
83500;DHT22;73433;50.908;13.746;2024-02-26T11:39:14;13.40;55.40
83500;DHT22;73433;50.908;13.746;2024-02-26T11:41:44;13.40;55.80
83500;DHT22;73433;50.908;13.746;2024-02-26T11:44:11;13.50;55.70
83500;DHT22;73433;50.908;13.746;2024-02-26T11:46:42;13.60;55.80
83500;DHT22;73433;50.908;13.746;2024-02-26T11:51:57;13.80;55.50
83500;DHT22;73433;50.908;13.746;2024-02-26T11:54:45;13.80;54.80
83500;DHT22;73433;50.908;13.746;2024-02-26T11:57:26;13.50;54.90
83500;DHT22;73433;50.908;13.746;2024-02-26T12:02:46;13.20;55.50
83500;DHT22;73433;50.908;13.746;2024-02-26T12:05:16;13.00;56.10
83500;DHT22;73433;50.908;13.746;2024-02-26T12:07:45;12.80;56.40
83500;DHT22;73433;50.908;13.746;2024-02-26T12:12:48;12.30;56.60
83500;DHT22;73433;50.908;13.746;2024-02-26T12:15:16;12.00;57.70
83500;DHT22;73433;50.908;13.746;2024-02-26T12:17:48;11.70;58.60
83500;DHT22;73433;50.908;13.746;2024-02-26T12:20:17;11.50;59.70
83500;DHT22;73433;50.908;13.746;2024-02-26T12:22:46;11.40;60.50
83500;DHT22;73433;50.908;13.746;2024-02-26T12:25:15;11.40;61.40
83500;DHT22;73433;50.908;13.746;2024-02-26T12:27:42;11.40;61.10
83500;DHT22;73433;50.908;13.746;2024-02-26T12:30:10;11.40;60.90
83500;DHT22;73433;50.908;13.746;2024-02-26T12:32:37;11.30;61.00
83500;DHT22;73433;50.908;13.746;2024-02-26T12:35:06;11.30;61.10
83500;DHT22;73433;50.908;13.746;2024-02-26T12:37:33;11.20;61.30
83500;DHT22;73433;50.908;13.746;2024-02-26T12:40:05;11.10;61.60
83500;DHT22;73433;50.908;13.746;2024-02-26T12:42:35;11.10;61.70
83500;DHT22;73433;50.908;13.746;2024-02-26T12:45:10;10.90;62.20
83500;DHT22;73433;50.908;13.746;2024-02-26T12:47:39;10.80;62.80
83500;DHT22;73433;50.908;13.746;2024-02-26T12:50:08;10.60;63.10
83500;DHT22;73433;50.908;13.746;2024-02-26T12:52:44;10.40;63.90
83500;DHT22;73433;50.908;13.746;2024-02-26T12:55:15;10.30;64.60
83500;DHT22;73433;50.908;13.746;2024-02-26T12:57:43;10.20;65.00
83500;DHT22;73433;50.908;13.746;2024-02-26T13:00:25;10.20;65.40
83500;DHT22;73433;50.908;13.746;2024-02-26T13:02:54;10.10;66.00
83500;DHT22;73433;50.908;13.746;2024-02-26T13:05:23;10.10;66.10
83500;DHT22;73433;50.908;13.746;2024-02-26T13:07:50;10.10;66.00
83500;DHT22;73433;50.908;13.746;2024-02-26T13:10:20;10.00;66.20
83500;DHT22;73433;50.908;13.746;2024-02-26T13:12:49;9.90;66.50
83500;DHT22;73433;50.908;13.746;2024-02-26T13:15:21;9.80;67.00
83500;DHT22;73433;50.908;13.746;2024-02-26T13:17:49;9.70;67.10
83500;DHT22;73433;50.908;13.746;2024-02-26T13:20:29;9.70;67.20
83500;DHT22;73433;50.908;13.746;2024-02-26T13:25:29;9.60;67.10
83500;DHT22;73433;50.908;13.746;2024-02-26T13:28:14;9.60;67.20
83500;DHT22;73433;50.908;13.746;2024-02-26T13:30:52;9.50;67.30
83500;DHT22;73433;50.908;13.746;2024-02-26T13:33:21;9.50;67.80
83500;DHT22;73433;50.908;13.746;2024-02-26T13:35:49;9.50;67.50
83500;DHT22;73433;50.908;13.746;2024-02-26T13:38:16;9.50;67.50
83500;DHT22;73433;50.908;13.746;2024-02-26T13:40:44;9.40;67.60
83500;DHT22;73433;50.908;13.746;2024-02-26T13:43:11;9.30;67.70
83500;DHT22;73433;50.908;13.746;2024-02-26T13:45:39;9.30;68.70
83500;DHT22;73433;50.908;13.746;2024-02-26T13:48:08;9.20;67.90
83500;DHT22;73433;50.908;13.746;2024-02-26T13:50:38;9.20;68.30
83500;DHT22;73433;50.908;13.746;2024-02-26T13:53:05;9.10;68.70
83500;DHT22;73433;50.908;13.746;2024-02-26T13:55:33;9.10;69.00
83500;DHT22;73433;50.908;13.746;2024-02-26T13:58:00;9.00;69.10
83500;DHT22;73433;50.908;13.746;2024-02-26T14:00:29;9.00;69.30
83500;DHT22;73433;50.908;13.746;2024-02-26T14:03:01;9.00;69.40
83500;DHT22;73433;50.908;13.746;2024-02-26T14:05:29;9.00;69.80
83500;DHT22;73433;50.908;13.746;2024-02-26T14:07:57;9.00;70.60
83500;DHT22;73433;50.908;13.746;2024-02-26T14:10:24;9.00;69.80
83500;DHT22;73433;50.908;13.746;2024-02-26T14:12:53;9.10;70.20
83500;DHT22;73433;50.908;13.746;2024-02-26T14:15:20;9.10;70.00
83500;DHT22;73433;50.908;13.746;2024-02-26T14:17:47;9.10;69.90
83500;DHT22;73433;50.908;13.746;2024-02-26T14:20:21;9.20;69.70
83500;DHT22;73433;50.908;13.746;2024-02-26T14:22:49;9.20;69.80
83500;DHT22;73433;50.908;13.746;2024-02-26T14:25:16;9.10;69.90
83500;DHT22;73433;50.908;13.746;2024-02-26T14:27:44;9.20;69.70
83500;DHT22;73433;50.908;13.746;2024-02-26T14:30:12;9.20;69.70
83500;DHT22;73433;50.908;13.746;2024-02-26T14:32:39;9.20;69.40
83500;DHT22;73433;50.908;13.746;2024-02-26T14:35:07;9.20;69.20
83500;DHT22;73433;50.908;13.746;2024-02-26T14:37:43;9.30;69.20
83500;DHT22;73433;50.908;13.746;2024-02-26T14:40:14;9.30;69.00
83500;DHT22;73433;50.908;13.746;2024-02-26T14:42:42;9.30;68.60
83500;DHT22;73433;50.908;13.746;2024-02-26T14:45:09;9.20;68.80
83500;DHT22;73433;50.908;13.746;2024-02-26T14:47:38;9.20;68.80
83500;DHT22;73433;50.908;13.746;2024-02-26T14:50:06;9.20;68.80
83500;DHT22;73433;50.908;13.746;2024-02-26T14:52:34;9.20;68.90
83500;DHT22;73433;50.908;13.746;2024-02-26T14:55:01;9.20;68.80
83500;DHT22;73433;50.908;13.746;2024-02-26T14:57:28;9.10;68.60
83500;DHT22;73433;50.908;13.746;2024-02-26T14:59:56;9.10;68.60
83500;DHT22;73433;50.908;13.746;2024-02-26T15:02:23;9.10;68.60
83500;DHT22;73433;50.908;13.746;2024-02-26T15:04:50;9.10;68.60
83500;DHT22;73433;50.908;13.746;2024-02-26T15:07:17;9.10;68.90
83500;DHT22;73433;50.908;13.746;2024-02-26T15:09:47;9.10;68.90
83500;DHT22;73433;50.908;13.746;2024-02-26T15:12:14;9.10;69.10
83500;DHT22;73433;50.908;13.746;2024-02-26T15:14:42;9.10;69.30
83500;DHT22;73433;50.908;13.746;2024-02-26T15:17:09;9.10;69.40
83500;DHT22;73433;50.908;13.746;2024-02-26T15:19:40;9.10;69.10
83500;DHT22;73433;50.908;13.746;2024-02-26T15:22:07;9.10;69.10
83500;DHT22;73433;50.908;13.746;2024-02-26T15:24:34;9.00;69.20
83500;DHT22;73433;50.908;13.746;2024-02-26T15:27:01;9.00;69.40
83500;DHT22;73433;50.908;13.746;2024-02-26T15:29:29;9.00;69.40
83500;DHT22;73433;50.908;13.746;2024-02-26T15:31:56;8.90;69.70
83500;DHT22;73433;50.908;13.746;2024-02-26T15:34:23;8.90;69.50
83500;DHT22;73433;50.908;13.746;2024-02-26T15:36:50;8.90;69.50